Time;durP1;ratioP1;P1;durP2;ratioP2;P2;SDS_P1;SDS_P2;PMS_P1;PMS_P2;Temp;Humidity;BMP_temperature;BMP_pressure;BME280_temperature;BME280_humidity;BME280_pressure;Samples;Min_cycle;Max_cycle;Signal;HPM_P1;HPM_P2
2021/11/23 00:00:12;;;;;;;13.70;9.80;;;;;;;;;;4941953;29;20477;-83
2021/11/23 00:02:38;;;;;;;13.27;9.30;;;;;;;;;;4946960;29;20415;-83
2021/11/23 00:05:05;;;;;;;18.77;9.30;;;;;;;;;;4956807;28;20790;-83
2021/11/23 00:07:32;;;;;;;12.93;9.30;;;;;;;;;;4947642;28;20572;-84
2021/11/23 00:09:58;;;;;;;13.07;9.77;;;;;;;;;;4959376;29;20418;-84
2021/11/23 00:12:24;;;;;;;13.10;9.00;;;;;;;;;;4938875;29;20424;-84
2021/11/23 00:14:51;;;;;;;14.27;9.23;;;;;;;;;;4939670;29;20426;-83
2021/11/23 00:17:17;;;;;;;10.20;8.90;;;;;;;;;;4936006;29;20426;-83
2021/11/23 00:19:43;;;;;;;10.83;7.90;;;;;;;;;;4937062;29;20454;-83
2021/11/23 00:22:09;;;;;;;10.50;8.57;;;;;;;;;;4947301;29;20435;-83
2021/11/23 00:24:35;;;;;;;11.10;9.03;;;;;;;;;;4949506;29;20946;-83
2021/11/23 00:27:02;;;;;;;11.93;8.77;;;;;;;;;;4953030;29;20454;-82
2021/11/23 00:29:28;;;;;;;13.30;9.30;;;;;;;;;;4937957;28;20467;-83
2021/11/23 00:31:54;;;;;;;10.53;8.40;;;;;;;;;;4946534;28;20506;-83
2021/11/23 00:34:20;;;;;;;12.50;9.13;;;;;;;;;;4951246;28;20423;-84
2021/11/23 00:36:46;;;;;;;13.60;9.40;;;;;;;;;;4965843;29;20418;-83
2021/11/23 00:39:12;;;;;;;12.37;9.50;;;;;;;;;;4958614;28;20452;-83
2021/11/23 00:41:38;;;;;;;14.07;9.70;;;;;;;;;;4954287;29;20423;-84
2021/11/23 00:44:04;;;;;;;12.43;8.83;;;;;;;;;;4936934;29;20439;-83
2021/11/23 00:46:30;;;;;;;13.10;10.47;;;;;;;;;;4937636;29;20490;-84
2021/11/23 00:48:56;;;;;;;11.83;8.73;;;;;;;;;;4936848;29;20455;-83
2021/11/23 00:51:22;;;;;;;11.47;8.03;;;;;;;;;;4938190;29;20419;-83
2021/11/23 00:53:48;;;;;;;13.13;9.17;;;;;;;;;;4955948;29;20422;-84
2021/11/23 00:56:14;;;;;;;11.40;8.57;;;;;;;;;;4956889;29;20475;-83
2021/11/23 00:58:41;;;;;;;10.90;8.70;;;;;;;;;;4939796;28;20435;-84
2021/11/23 01:01:07;;;;;;;11.90;8.67;;;;;;;;;;4941070;28;20423;-84
2021/11/23 01:03:33;;;;;;;10.63;8.70;;;;;;;;;;4938122;29;20419;-84
2021/11/23 01:06:00;;;;;;;13.43;8.63;;;;;;;;;;4955657;29;20889;-84
2021/11/23 01:08:27;;;;;;;12.90;8.90;;;;;;;;;;4954732;29;20473;-84
2021/11/23 01:10:54;;;;;;;11.33;8.23;;;;;;;;;;4938991;29;20447;-83
2021/11/23 01:13:20;;;;;;;12.73;8.70;;;;;;;;;;4947980;29;20914;-84
2021/11/23 01:15:46;;;;;;;10.83;8.13;;;;;;;;;;4957849;29;20778;-83
2021/11/23 01:18:13;;;;;;;12.47;9.37;;;;;;;;;;4955186;28;20807;-84
2021/11/23 01:20:39;;;;;;;11.40;8.00;;;;;;;;;;4941336;29;20423;-83
2021/11/23 01:23:05;;;;;;;11.97;8.97;;;;;;;;;;4943960;29;20429;-83
2021/11/23 01:25:31;;;;;;;13.57;9.67;;;;;;;;;;4957716;28;20486;-84
2021/11/23 01:27:58;;;;;;;13.47;9.83;;;;;;;;;;4952818;28;20431;-84
2021/11/23 01:30:24;;;;;;;12.07;8.10;;;;;;;;;;4946688;28;20920;-83
2021/11/23 01:32:50;;;;;;;11.53;8.67;;;;;;;;;;4939788;29;20442;-84
2021/11/23 01:35:16;;;;;;;11.90;8.37;;;;;;;;;;4971239;29;20410;-82
2021/11/23 01:37:44;;;;;;;12.20;9.60;;;;;;;;;;4964871;29;20420;-83
2021/11/23 01:40:11;;;;;;;10.97;8.63;;;;;;;;;;4942998;29;20420;-83
2021/11/23 01:42:37;;;;;;;10.67;7.90;;;;;;;;;;4937634;29;20404;-82
2021/11/23 01:45:04;;;;;;;11.17;8.80;;;;;;;;;;4937393;29;20807;-82
2021/11/23 01:47:30;;;;;;;13.10;8.83;;;;;;;;;;4937119;29;20459;-83
2021/11/23 01:49:56;;;;;;;10.90;8.33;;;;;;;;;;4939983;29;20427;-83
2021/11/23 01:52:23;;;;;;;12.37;8.70;;;;;;;;;;4956828;29;20410;-83
2021/11/23 01:54:49;;;;;;;11.40;8.73;;;;;;;;;;4955964;29;20918;-83
2021/11/23 01:57:16;;;;;;;13.43;9.03;;;;;;;;;;4949445;29;20423;-83
2021/11/23 01:59:42;;;;;;;12.60;8.80;;;;;;;;;;4938379;28;20931;-84
2021/11/23 02:02:08;;;;;;;12.80;9.37;;;;;;;;;;4954184;29;20509;-83
2021/11/23 02:04:34;;;;;;;13.17;8.40;;;;;;;;;;4950285;28;20419;-83
2021/11/23 02:07:01;;;;;;;13.70;9.07;;;;;;;;;;4937445;29;20459;-83
2021/11/23 02:09:27;;;;;;;12.70;9.07;;;;;;;;;;4937979;29;20473;-83
2021/11/23 02:11:53;;;;;;;10.00;8.00;;;;;;;;;;4937327;29;20420;-83
2021/11/23 02:14:20;;;;;;;11.80;8.40;;;;;;;;;;4937843;29;20407;-83
2021/11/23 02:16:47;;;;;;;10.90;7.97;;;;;;;;;;4957943;29;20453;-83
2021/11/23 02:19:13;;;;;;;13.27;8.20;;;;;;;;;;4962989;28;20434;-82
2021/11/23 02:21:39;;;;;;;13.93;9.30;;;;;;;;;;4955727;29;20450;-82
2021/11/23 02:24:05;;;;;;;11.80;8.33;;;;;;;;;;4953437;29;20912;-84
2021/11/23 02:26:31;;;;;;;12.70;9.00;;;;;;;;;;4941276;28;20498;-84
2021/11/23 02:28:58;;;;;;;11.13;7.90;;;;;;;;;;4937317;28;20527;-84
2021/11/23 02:31:24;;;;;;;9.93;7.87;;;;;;;;;;4939861;28;20977;-83
2021/11/23 02:33:50;;;;;;;11.87;8.10;;;;;;;;;;4955890;28;20418;-83
2021/11/23 02:36:16;;;;;;;13.53;8.50;;;;;;;;;;4953239;28;20430;-82
2021/11/23 02:38:42;;;;;;;11.53;8.57;;;;;;;;;;4955106;28;20821;-82
2021/11/23 02:41:11;;;;;;;10.77;7.97;;;;;;;;;;4955214;29;20446;-83
2021/11/23 02:43:38;;;;;;;12.33;8.43;;;;;;;;;;4942503;28;20434;-83
2021/11/23 02:46:04;;;;;;;8.17;7.10;;;;;;;;;;4955045;29;20511;-84
2021/11/23 02:48:30;;;;;;;11.27;7.90;;;;;;;;;;4936402;28;20444;-82
2021/11/23 02:51:08;;;;;;;12.80;8.13;;;;;;;;;;4937705;28;20426;-82
2021/11/23 02:53:34;;;;;;;14.23;9.00;;;;;;;;;;4948042;28;20410;-84
2021/11/23 02:56:01;;;;;;;11.30;8.57;;;;;;;;;;4953983;29;20492;-83
2021/11/23 02:58:30;;;;;;;11.90;8.20;;;;;;;;;;4939626;28;20801;-84
2021/11/23 03:00:57;;;;;;;13.20;7.73;;;;;;;;;;4953619;28;20799;-83
2021/11/23 03:03:23;;;;;;;13.20;8.80;;;;;;;;;;4957072;28;20449;-83
2021/11/23 03:05:49;;;;;;;13.87;9.77;;;;;;;;;;4958151;28;20462;-83
2021/11/23 03:08:15;;;;;;;11.37;8.40;;;;;;;;;;4959858;28;20556;-83
2021/11/23 03:10:42;;;;;;;11.60;8.20;;;;;;;;;;4959694;29;20929;-83
2021/11/23 03:13:08;;;;;;;13.97;9.37;;;;;;;;;;4953695;29;20420;-83
2021/11/23 03:15:34;;;;;;;10.93;8.70;;;;;;;;;;4946711;29;20463;-84
2021/11/23 03:18:01;;;;;;;10.67;8.90;;;;;;;;;;4959724;28;20422;-83
2021/11/23 03:20:28;;;;;;;14.03;9.00;;;;;;;;;;4959697;29;20438;-83
2021/11/23 03:22:55;;;;;;;12.27;8.97;;;;;;;;;;4955943;29;20796;-83
2021/11/23 03:25:21;;;;;;;12.73;9.10;;;;;;;;;;4953996;28;20415;-84
2021/11/23 03:27:47;;;;;;;12.80;9.10;;;;;;;;;;4940268;29;20463;-83
2021/11/23 03:30:15;;;;;;;13.37;8.13;;;;;;;;;;4940138;29;20414;-83
2021/11/23 03:32:41;;;;;;;12.53;7.90;;;;;;;;;;4945059;29;20419;-83
2021/11/23 03:35:08;;;;;;;10.97;8.40;;;;;;;;;;4943632;29;20422;-83
2021/11/23 03:37:34;;;;;;;12.10;7.80;;;;;;;;;;4957616;28;21016;-83
2021/11/23 03:40:00;;;;;;;13.47;9.50;;;;;;;;;;4958702;29;20517;-83
2021/11/23 03:42:27;;;;;;;12.77;8.93;;;;;;;;;;4958053;29;20437;-83
2021/11/23 03:44:58;;;;;;;14.67;8.40;;;;;;;;;;4947433;29;20973;-83
2021/11/23 03:47:24;;;;;;;12.33;8.83;;;;;;;;;;4936888;29;20486;-82
2021/11/23 03:49:50;;;;;;;13.10;9.67;;;;;;;;;;4936841;29;20441;-82
2021/11/23 03:52:17;;;;;;;11.00;8.20;;;;;;;;;;4937726;29;20780;-82
2021/11/23 03:54:43;;;;;;;13.87;8.93;;;;;;;;;;4937916;29;20450;-82
2021/11/23 03:57:09;;;;;;;15.90;8.90;;;;;;;;;;4955449;28;20549;-83
2021/11/23 03:59:35;;;;;;;12.43;8.90;;;;;;;;;;4956619;28;20430;-82
2021/11/23 04:02:02;;;;;;;12.80;8.53;;;;;;;;;;4956066;29;20426;-82
2021/11/23 04:04:28;;;;;;;14.30;9.33;;;;;;;;;;4953675;29;20514;-84
2021/11/23 04:06:54;;;;;;;13.20;9.67;;;;;;;;;;4949339;28;20458;-83
2021/11/23 04:09:20;;;;;;;12.73;8.80;;;;;;;;;;4968613;28;20427;-83
2021/11/23 04:11:46;;;;;;;18.80;10.93;;;;;;;;;;4964868;29;20426;-83
2021/11/23 04:14:12;;;;;;;14.77;10.43;;;;;;;;;;4960668;29;20422;-83
2021/11/23 04:16:38;;;;;;;11.77;9.27;;;;;;;;;;4942402;29;20426;-83
2021/11/23 04:19:04;;;;;;;16.83;10.30;;;;;;;;;;4939963;29;20443;-83
2021/11/23 04:21:30;;;;;;;13.20;9.40;;;;;;;;;;4938500;29;20431;-83
2021/11/23 04:23:56;;;;;;;17.00;9.83;;;;;;;;;;4948435;29;20421;-84
2021/11/23 04:26:22;;;;;;;14.10;10.30;;;;;;;;;;4951630;28;20516;-83
2021/11/23 04:28:48;;;;;;;15.27;10.80;;;;;;;;;;4954711;28;20447;-83
2021/11/23 04:31:14;;;;;;;19.80;10.60;;;;;;;;;;4942799;28;20419;-83
2021/11/23 04:33:40;;;;;;;15.97;9.90;;;;;;;;;;4937846;29;20415;-84
2021/11/23 04:36:06;;;;;;;17.37;11.17;;;;;;;;;;4948932;28;20426;-83
2021/11/23 04:38:33;;;;;;;15.43;9.77;;;;;;;;;;4941772;28;20473;-84
2021/11/23 04:40:59;;;;;;;12.73;9.80;;;;;;;;;;4938106;29;20419;-84
2021/11/23 04:43:25;;;;;;;13.50;9.40;;;;;;;;;;4940516;29;20462;-83
2021/11/23 04:45:51;;;;;;;14.10;9.43;;;;;;;;;;4946604;29;20463;-83
2021/11/23 04:48:17;;;;;;;15.97;9.87;;;;;;;;;;4956710;28;20466;-83
2021/11/23 04:50:43;;;;;;;14.63;9.30;;;;;;;;;;4954852;29;20412;-84
2021/11/23 04:53:10;;;;;;;13.50;8.73;;;;;;;;;;4938139;29;20408;-83
2021/11/23 04:55:36;;;;;;;10.67;9.47;;;;;;;;;;4952722;29;20965;-84
2021/11/23 04:58:02;;;;;;;14.10;9.70;;;;;;;;;;4951538;28;20592;-84
2021/11/23 05:00:28;;;;;;;14.33;9.53;;;;;;;;;;4943717;29;20476;-83
2021/11/23 05:02:54;;;;;;;16.90;10.17;;;;;;;;;;4957420;29;20418;-83
2021/11/23 05:05:20;;;;;;;16.90;10.77;;;;;;;;;;4943397;29;20446;-83
2021/11/23 05:07:46;;;;;;;14.73;9.90;;;;;;;;;;4947385;28;20497;-83
2021/11/23 05:10:13;;;;;;;12.17;9.27;;;;;;;;;;4938920;29;20412;-83
2021/11/23 05:12:39;;;;;;;13.10;8.63;;;;;;;;;;4936481;29;20408;-84
2021/11/23 05:15:06;;;;;;;12.90;9.40;;;;;;;;;;4941250;28;20470;-83
2021/11/23 05:17:32;;;;;;;15.33;9.53;;;;;;;;;;4955978;28;20970;-84
2021/11/23 05:19:58;;;;;;;12.73;9.00;;;;;;;;;;4952322;29;20923;-83
2021/11/23 05:22:24;;;;;;;14.83;9.23;;;;;;;;;;4957942;28;20407;-82
2021/11/23 05:24:50;;;;;;;12.87;9.70;;;;;;;;;;4954736;28;20442;-82
2021/11/23 05:27:17;;;;;;;15.37;10.47;;;;;;;;;;4967657;28;20470;-83
2021/11/23 05:29:43;;;;;;;13.10;8.90;;;;;;;;;;4958552;29;20518;-82
2021/11/23 05:32:09;;;;;;;12.30;9.07;;;;;;;;;;4972748;28;20402;-82
2021/11/23 05:34:35;;;;;;;17.13;10.23;;;;;;;;;;4970933;28;20765;-82
2021/11/23 05:37:01;;;;;;;14.40;8.73;;;;;;;;;;4959854;29;20866;-83
2021/11/23 05:39:27;;;;;;;17.87;9.30;;;;;;;;;;4968659;28;20451;-83
2021/11/23 05:41:53;;;;;;;13.00;8.40;;;;;;;;;;4942796;29;20416;-83
2021/11/23 05:44:19;;;;;;;15.07;10.03;;;;;;;;;;4934923;29;20462;-82
2021/11/23 05:46:46;;;;;;;11.90;8.70;;;;;;;;;;4936766;29;20455;-82
2021/11/23 05:49:12;;;;;;;13.73;9.70;;;;;;;;;;4939015;28;20449;-83
2021/11/23 05:51:40;;;;;;;15.13;8.80;;;;;;;;;;4954420;29;20790;-83
2021/11/23 05:54:06;;;;;;;11.13;8.40;;;;;;;;;;4954315;28;20425;-82
2021/11/23 05:56:32;;;;;;;12.63;8.80;;;;;;;;;;4955346;29;20767;-83
2021/11/23 05:58:58;;;;;;;13.30;8.67;;;;;;;;;;4953078;28;20446;-83
2021/11/23 06:01:24;;;;;;;18.30;10.93;;;;;;;;;;4940298;29;20482;-83
2021/11/23 06:03:50;;;;;;;15.70;10.23;;;;;;;;;;4950355;29;20445;-83
2021/11/23 06:06:16;;;;;;;14.27;8.97;;;;;;;;;;4957938;29;20461;-83
2021/11/23 06:08:42;;;;;;;14.10;9.90;;;;;;;;;;4960426;29;20449;-85
2021/11/23 06:11:08;;;;;;;16.30;9.70;;;;;;;;;;4961979;29;20423;-84
2021/11/23 06:13:35;;;;;;;12.97;9.27;;;;;;;;;;4963530;29;20421;-84
2021/11/23 06:16:01;;;;;;;17.47;10.93;;;;;;;;;;4957718;29;20431;-84
2021/11/23 06:18:27;;;;;;;16.10;9.83;;;;;;;;;;4958117;28;20530;-84
2021/11/23 06:20:54;;;;;;;12.33;9.03;;;;;;;;;;4952827;29;20427;-84
2021/11/23 06:23:21;;;;;;;14.10;9.70;;;;;;;;;;4962482;29;20432;-83
2021/11/23 06:25:52;;;;;;;15.93;9.57;;;;;;;;;;4961047;29;20458;-84
2021/11/23 06:28:19;;;;;;;12.60;9.73;;;;;;;;;;4957209;28;20439;-84
2021/11/23 06:30:45;;;;;;;12.67;9.67;;;;;;;;;;4959999;29;20427;-85
2021/11/23 06:33:12;;;;;;;15.77;9.47;;;;;;;;;;4953180;29;20430;-84
2021/11/23 06:35:38;;;;;;;15.07;10.00;;;;;;;;;;4962698;29;20485;-85
2021/11/23 06:38:05;;;;;;;15.20;9.77;;;;;;;;;;4962526;29;20469;-85
2021/11/23 06:40:32;;;;;;;12.27;8.73;;;;;;;;;;4960517;29;20421;-86
2021/11/23 06:42:58;;;;;;;12.43;9.30;;;;;;;;;;4948294;29;20519;-85
2021/11/23 06:45:24;;;;;;;14.77;9.50;;;;;;;;;;4952748;29;20469;-84
2021/11/23 06:47:51;;;;;;;13.73;9.20;;;;;;;;;;4956689;29;20466;-83
2021/11/23 06:50:17;;;;;;;17.00;9.60;;;;;;;;;;4948882;29;20423;-84
2021/11/23 06:52:43;;;;;;;16.27;10.03;;;;;;;;;;4956504;29;20430;-83
2021/11/23 06:55:10;;;;;;;12.97;8.63;;;;;;;;;;4960229;28;20523;-83
2021/11/23 06:57:36;;;;;;;12.80;9.37;;;;;;;;;;4959033;28;20512;-83
2021/11/23 07:00:04;;;;;;;13.80;10.23;;;;;;;;;;4950941;29;20426;-83
2021/11/23 07:02:30;;;;;;;12.37;8.87;;;;;;;;;;4954926;29;20511;-82
2021/11/23 07:04:56;;;;;;;11.80;9.27;;;;;;;;;;4956069;29;20445;-83
2021/11/23 07:20:17;;;;;;;15.23;10.60;;;;;;;;;;5088859;27;20564;-63
2021/11/23 07:22:43;;;;;;;13.57;10.20;;;;;;;;;;5073940;28;20408;-67
2021/11/23 07:25:09;;;;;;;15.13;10.40;;;;;;;;;;5066892;28;20882;-69
2021/11/23 07:27:35;;;;;;;14.90;10.20;;;;;;;;;;5069807;28;20386;-69
2021/11/23 07:30:02;;;;;;;16.27;11.10;;;;;;;;;;5069793;28;20416;-61
2021/11/23 07:32:28;;;;;;;16.37;10.73;;;;;;;;;;5071920;28;20421;-64
2021/11/23 07:34:54;;;;;;;17.37;12.00;;;;;;;;;;5078128;28;20517;-63
2021/11/23 07:37:20;;;;;;;15.13;11.60;;;;;;;;;;5071823;28;20906;-63
2021/11/23 07:39:47;;;;;;;14.90;9.97;;;;;;;;;;5074810;28;20802;-67
2021/11/23 07:42:14;;;;;;;14.63;10.77;;;;;;;;;;5070538;28;20417;-67
2021/11/23 07:44:40;;;;;;;15.87;11.40;;;;;;;;;;5087003;28;20473;-67
2021/11/23 07:47:06;;;;;;;14.90;10.23;;;;;;;;;;5060809;28;20429;-66
2021/11/23 07:49:32;;;;;;;14.67;9.50;;;;;;;;;;5065166;28;20817;-69
2021/11/23 07:51:58;;;;;;;14.03;9.50;;;;;;;;;;5067594;28;20746;-69
2021/11/23 07:54:24;;;;;;;13.67;9.30;;;;;;;;;;5068094;28;20821;-63
2021/11/23 07:56:50;;;;;;;13.50;10.47;;;;;;;;;;5066990;28;20925;-68
2021/11/23 07:59:16;;;;;;;16.83;10.23;;;;;;;;;;5057334;28;20442;-69
2021/11/23 08:01:43;;;;;;;16.23;10.90;;;;;;;;;;5053723;28;20439;-66
2021/11/23 08:04:09;;;;;;;14.57;9.60;;;;;;;;;;5061131;28;20417;-66
2021/11/23 08:06:35;;;;;;;19.37;10.90;;;;;;;;;;5068569;28;20472;-68
2021/11/23 08:09:01;;;;;;;14.50;9.73;;;;;;;;;;5072297;28;20990;-68
2021/11/23 08:11:27;;;;;;;14.95;10.45;;;;;;;;;;5064092;28;20742;-68
2021/11/23 08:13:53;;;;;;;16.13;11.30;;;;;;;;;;5065617;28;20167;-69
2021/11/23 08:16:21;;;;;;;18.33;9.53;;;;;;;;;;5061743;28;20519;-65
2021/11/23 08:18:47;;;;;;;14.50;9.13;;;;;;;;;;5062357;28;20484;-67
2021/11/23 08:21:14;;;;;;;13.40;9.03;;;;;;;;;;5052419;28;20939;-67
2021/11/23 08:23:40;;;;;;;14.97;10.27;;;;;;;;;;5052845;28;20433;-66
2021/11/23 08:26:06;;;;;;;14.20;10.43;;;;;;;;;;5053054;28;20410;-67
2021/11/23 08:28:36;;;;;;;15.20;10.17;;;;;;;;;;5053728;28;20450;-67
2021/11/23 08:31:02;;;;;;;16.13;11.33;;;;;;;;;;5044357;28;20457;-64
2021/11/23 08:33:29;;;;;;;13.17;9.77;;;;;;;;;;5050659;28;20464;-67
2021/11/23 08:35:55;;;;;;;13.50;9.97;;;;;;;;;;5052199;28;20421;-67
2021/11/23 08:38:21;;;;;;;12.70;10.37;;;;;;;;;;5052279;28;20421;-66
2021/11/23 08:40:47;;;;;;;18.70;10.70;;;;;;;;;;5052801;28;20449;-66
2021/11/23 08:43:13;;;;;;;15.07;11.13;;;;;;;;;;5049689;28;20442;-66
2021/11/23 08:45:41;;;;;;;15.67;11.83;;;;;;;;;;5056264;28;20422;-66
2021/11/23 08:48:07;;;;;;;14.10;11.03;;;;;;;;;;5051302;28;20806;-65
2021/11/23 08:50:33;;;;;;;15.23;11.23;;;;;;;;;;5051044;28;20923;-65
2021/11/23 08:53:02;;;;;;;14.20;11.67;;;;;;;;;;5053975;28;20418;-65
2021/11/23 08:55:28;;;;;;;15.73;11.47;;;;;;;;;;5051200;28;20426;-65
2021/11/23 08:57:55;;;;;;;21.63;13.00;;;;;;;;;;5050669;28;20923;-64
2021/11/23 09:00:22;;;;;;;14.43;12.10;;;;;;;;;;5043776;28;20987;-66
2021/11/23 09:02:49;;;;;;;15.10;10.57;;;;;;;;;;5049656;28;20504;-65
2021/11/23 09:05:17;;;;;;;13.33;10.63;;;;;;;;;;5053088;28;20472;-60
2021/11/23 09:07:43;;;;;;;13.70;10.10;;;;;;;;;;5051809;28;20773;-60
2021/11/23 09:10:16;;;;;;;14.53;11.07;;;;;;;;;;5056930;28;20492;-64
2021/11/23 09:12:42;;;;;;;15.40;11.90;;;;;;;;;;5052602;28;20414;-67
2021/11/23 09:15:08;;;;;;;12.17;10.33;;;;;;;;;;5052104;28;20482;-67
2021/11/23 09:17:34;;;;;;;13.67;11.00;;;;;;;;;;5048485;28;20453;-62
2021/11/23 09:20:00;;;;;;;16.97;11.90;;;;;;;;;;5056894;28;20450;-66
2021/11/23 09:22:28;;;;;;;16.87;11.90;;;;;;;;;;5054540;28;20438;-65
2021/11/23 09:24:54;;;;;;;14.00;10.97;;;;;;;;;;5051737;28;20414;-62
2021/11/23 09:27:20;;;;;;;15.00;11.53;;;;;;;;;;5055144;28;20409;-64
2021/11/23 09:29:47;;;;;;;19.17;12.87;;;;;;;;;;5052738;28;20466;-64
2021/11/23 09:32:13;;;;;;;19.53;11.70;;;;;;;;;;5049997;28;20414;-64
2021/11/23 09:34:39;;;;;;;21.93;11.80;;;;;;;;;;5051185;28;20458;-64
2021/11/23 09:37:06;;;;;;;24.20;12.53;;;;;;;;;;5050269;28;20417;-63
2021/11/23 09:39:32;;;;;;;14.77;11.47;;;;;;;;;;5050432;28;20438;-63
2021/11/23 09:41:58;;;;;;;13.80;10.70;;;;;;;;;;5047097;28;20476;-63
2021/11/23 09:44:26;;;;;;;14.73;10.70;;;;;;;;;;5052296;28;20422;-64
2021/11/23 09:46:52;;;;;;;15.27;11.47;;;;;;;;;;5051477;28;20890;-64
2021/11/23 09:49:18;;;;;;;17.10;11.40;;;;;;;;;;5050530;28;20465;-63
2021/11/23 09:51:44;;;;;;;13.60;11.07;;;;;;;;;;5050335;28;20420;-63
2021/11/23 09:54:11;;;;;;;17.10;12.73;;;;;;;;;;5036445;28;20432;-65
2021/11/23 09:56:39;;;;;;;15.60;12.07;;;;;;;;;;5040671;28;20425;-65
2021/11/23 09:59:06;;;;;;;16.27;11.50;;;;;;;;;;5043557;28;20454;-65
2021/11/23 10:01:45;;;;;;;20.90;12.97;;;;;;;;;;5038611;28;20448;-65
2021/11/23 10:04:11;;;;;;;15.67;11.53;;;;;;;;;;5048996;28;20422;-66
2021/11/23 10:06:51;;;;;;;15.87;11.77;;;;;;;;;;5048251;28;20417;-67
2021/11/23 10:09:25;;;;;;;15.60;12.80;;;;;;;;;;5044479;28;20993;-65
2021/11/23 10:11:51;;;;;;;15.47;11.70;;;;;;;;;;5045958;28;20497;-66
2021/11/23 10:14:17;;;;;;;15.70;12.10;;;;;;;;;;5056557;28;20768;-66
2021/11/23 10:16:46;;;;;;;15.40;12.27;;;;;;;;;;5051104;28;20759;-68
2021/11/23 10:19:14;;;;;;;21.23;13.03;;;;;;;;;;5049202;28;20538;-67
2021/11/23 10:21:48;;;;;;;13.83;11.83;;;;;;;;;;5050524;28;21183;-68
2021/11/23 10:24:16;;;;;;;13.90;11.03;;;;;;;;;;5048117;28;20433;-67
2021/11/23 10:26:43;;;;;;;13.13;10.97;;;;;;;;;;5044898;28;20783;-67
2021/11/23 10:29:09;;;;;;;14.97;12.37;;;;;;;;;;5041098;28;20750;-67
2021/11/23 10:31:40;;;;;;;15.50;12.47;;;;;;;;;;5050832;28;21001;-68
2021/11/23 10:34:14;;;;;;;17.57;11.93;;;;;;;;;;5062704;28;20410;-68
2021/11/23 10:36:47;;;;;;;14.63;11.77;;;;;;;;;;5050300;28;20414;-69
2021/11/23 10:39:15;;;;;;;17.20;12.70;;;;;;;;;;5051524;28;20444;-67
2021/11/23 10:41:44;;;;;;;18.50;12.10;;;;;;;;;;5056003;28;20567;-68
2021/11/23 10:44:17;;;;;;;12.57;10.70;;;;;;;;;;5060155;28;20421;-69
2021/11/23 10:46:50;;;;;;;16.03;12.00;;;;;;;;;;5054097;28;20455;-67
2021/11/23 10:49:25;;;;;;;15.53;11.60;;;;;;;;;;5048054;28;20507;-68
2021/11/23 10:51:51;;;;;;;15.57;11.83;;;;;;;;;;5047580;28;20417;-68
2021/11/23 10:54:18;;;;;;;14.77;11.53;;;;;;;;;;5051374;28;20424;-67
2021/11/23 10:56:58;;;;;;;14.90;11.10;;;;;;;;;;5058103;28;20426;-68
2021/11/23 10:59:24;;;;;;;14.33;11.83;;;;;;;;;;5051324;28;21065;-68
2021/11/23 11:01:50;;;;;;;15.50;11.60;;;;;;;;;;5058478;28;20414;-68
2021/11/23 11:04:16;;;;;;;13.60;10.50;;;;;;;;;;5069094;28;20421;-68
2021/11/23 11:06:42;;;;;;;15.17;11.27;;;;;;;;;;5049611;28;20499;-68
2021/11/23 11:09:09;;;;;;;13.80;10.47;;;;;;;;;;5045461;28;20923;-68
2021/11/23 11:11:36;;;;;;;13.43;10.30;;;;;;;;;;5052395;28;20535;-68
2021/11/23 11:14:05;;;;;;;15.07;13.00;;;;;;;;;;5046633;28;20427;-68
2021/11/23 11:16:34;;;;;;;12.63;10.60;;;;;;;;;;5042918;28;20429;-69
2021/11/23 11:19:03;;;;;;;14.77;11.30;;;;;;;;;;5047130;28;20202;-66
2021/11/23 11:21:30;;;;;;;14.60;11.83;;;;;;;;;;5042562;28;20463;-67
2021/11/23 11:24:16;;;;;;;12.63;10.03;;;;;;;;;;5046354;28;20418;-66
2021/11/23 11:26:42;;;;;;;16.10;10.60;;;;;;;;;;5040844;28;20427;-67
2021/11/23 11:29:08;;;;;;;13.13;10.87;;;;;;;;;;5050895;28;20763;-66
2021/11/23 11:31:39;;;;;;;13.33;11.10;;;;;;;;;;5050150;28;20536;-66
2021/11/23 11:34:15;;;;;;;14.83;11.77;;;;;;;;;;5049916;28;20763;-68
2021/11/23 11:36:41;;;;;;;12.50;10.80;;;;;;;;;;5047564;28;20536;-66
2021/11/23 11:39:08;;;;;;;16.90;11.93;;;;;;;;;;5053832;28;20445;-68
2021/11/23 11:41:35;;;;;;;14.77;11.40;;;;;;;;;;5056452;28;20514;-67
2021/11/23 11:44:12;;;;;;;14.40;12.90;;;;;;;;;;5044615;28;20413;-68
2021/11/23 11:46:38;;;;;;;13.90;12.40;;;;;;;;;;5046314;28;20410;-67
2021/11/23 11:49:05;;;;;;;18.03;13.30;;;;;;;;;;5047101;28;21026;-68
2021/11/23 11:51:34;;;;;;;16.40;12.63;;;;;;;;;;5049723;28;20445;-67
2021/11/23 11:54:20;;;;;;;14.50;11.90;;;;;;;;;;5035824;28;20405;-68
2021/11/23 11:56:47;;;;;;;25.43;19.13;;;;;;;;;;5048287;28;20563;-68
2021/11/23 11:59:21;;;;;;;13.47;11.57;;;;;;;;;;5049256;28;21046;-68
2021/11/23 12:01:52;;;;;;;16.50;12.00;;;;;;;;;;5052133;28;20979;-67
2021/11/23 12:04:20;;;;;;;16.10;12.00;;;;;;;;;;5047624;28;20446;-63
2021/11/23 12:07:09;;;;;;;13.30;11.90;;;;;;;;;;5045854;28;20420;-64
2021/11/23 12:09:36;;;;;;;13.30;11.90;;;;;;;;;;5044201;28;20963;-67
2021/11/23 12:12:11;;;;;;;16.03;11.80;;;;;;;;;;5049833;28;20175;-68
2021/11/23 12:14:49;;;;;;;13.27;11.87;;;;;;;;;;5047107;28;20774;-67
2021/11/23 12:17:24;;;;;;;19.57;11.60;;;;;;;;;;5044005;28;20464;-67
2021/11/23 12:19:52;;;;;;;19.17;11.73;;;;;;;;;;5052017;28;20465;-67
2021/11/23 12:22:23;;;;;;;14.53;11.10;;;;;;;;;;5046326;28;20425;-65
2021/11/23 12:24:52;;;;;;;13.70;11.80;;;;;;;;;;5048029;28;20422;-66
2021/11/23 12:27:18;;;;;;;14.10;11.00;;;;;;;;;;5052677;28;20765;-67
2021/11/23 12:29:47;;;;;;;12.10;10.70;;;;;;;;;;5053479;28;20441;-67
2021/11/23 12:32:14;;;;;;;13.10;10.37;;;;;;;;;;5053164;28;20494;-66
2021/11/23 12:34:54;;;;;;;14.10;10.70;;;;;;;;;;5055422;28;20903;-67
2021/11/23 12:37:30;;;;;;;15.53;11.37;;;;;;;;;;5052394;28;20425;-66
2021/11/23 12:39:58;;;;;;;11.37;10.17;;;;;;;;;;5052120;28;20531;-66
2021/11/23 12:42:24;;;;;;;10.83;9.67;;;;;;;;;;5054020;28;20516;-66
2021/11/23 12:44:50;;;;;;;15.07;12.77;;;;;;;;;;5052095;28;20416;-67
2021/11/23 12:47:21;;;;;;;12.73;10.37;;;;;;;;;;5051815;28;20774;-66
2021/11/23 12:49:58;;;;;;;12.60;10.27;;;;;;;;;;5053596;28;20455;-65
2021/11/23 12:52:30;;;;;;;11.30;10.20;;;;;;;;;;5053226;28;20417;-63
2021/11/23 12:54:57;;;;;;;10.87;9.50;;;;;;;;;;5054178;28;20447;-66
2021/11/23 12:57:26;;;;;;;54.00;17.20;;;;;;;;;;5058975;28;20507;-64
2021/11/23 12:59:58;;;;;;;32.67;12.67;;;;;;;;;;5058406;28;20479;-66
2021/11/23 13:02:30;;;;;;;11.87;9.80;;;;;;;;;;5051572;28;20413;-66
2021/11/23 13:05:17;;;;;;;10.10;8.87;;;;;;;;;;5051097;28;20422;-65
2021/11/23 13:07:53;;;;;;;12.30;9.83;;;;;;;;;;5052172;28;20424;-65
2021/11/23 13:10:24;;;;;;;10.90;9.70;;;;;;;;;;5037557;28;20468;-66
2021/11/23 13:12:52;;;;;;;9.77;8.57;;;;;;;;;;5048888;28;20422;-66
2021/11/23 13:15:20;;;;;;;10.20;8.47;;;;;;;;;;5050071;28;21006;-65
2021/11/23 13:18:04;;;;;;;12.40;9.93;;;;;;;;;;5051975;28;20442;-67
2021/11/23 13:20:36;;;;;;;12.57;9.30;;;;;;;;;;5055435;28;21015;-69
2021/11/23 13:23:14;;;;;;;13.57;10.80;;;;;;;;;;5047956;28;20879;-64
2021/11/23 13:25:41;;;;;;;11.97;9.83;;;;;;;;;;5051574;28;20431;-67
2021/11/23 13:28:09;;;;;;;10.70;8.97;;;;;;;;;;5048215;28;20975;-67
2021/11/23 13:30:49;;;;;;;11.20;9.97;;;;;;;;;;5050867;28;20430;-66
2021/11/23 13:33:22;;;;;;;11.40;9.43;;;;;;;;;;5048559;28;20443;-67
2021/11/23 13:35:51;;;;;;;11.00;9.23;;;;;;;;;;5050868;28;20410;-66
2021/11/23 13:38:26;;;;;;;21.20;16.30;;;;;;;;;;5047477;28;20496;-67
2021/11/23 13:40:53;;;;;;;19.73;15.70;;;;;;;;;;5044143;28;20786;-66
2021/11/23 13:43:19;;;;;;;10.07;7.97;;;;;;;;;;5046242;28;20418;-67
2021/11/23 13:46:05;;;;;;;10.53;8.47;;;;;;;;;;5047646;28;20745;-67
2021/11/23 13:48:32;;;;;;;12.13;10.80;;;;;;;;;;5049746;28;21236;-74
2021/11/23 13:50:59;;;;;;;19.50;14.67;;;;;;;;;;5053287;28;21016;-67
2021/11/23 13:53:25;;;;;;;12.40;10.17;;;;;;;;;;5054323;28;20771;-67
2021/11/23 13:55:52;;;;;;;11.55;9.73;;;;;;;;;;5055208;28;20766;-67
2021/11/23 13:58:18;;;;;;;11.20;9.98;;;;;;;;;;5050222;28;20465;-67
2021/11/23 14:00:44;;;;;;;10.33;8.67;;;;;;;;;;5048121;28;20199;-67
2021/11/23 14:03:12;;;;;;;12.00;9.17;;;;;;;;;;5048297;28;20509;-66
2021/11/23 14:05:41;;;;;;;11.67;9.40;;;;;;;;;;5048885;28;20421;-66
2021/11/23 14:08:11;;;;;;;10.70;8.73;;;;;;;;;;5050894;28;20773;-66
2021/11/23 14:10:58;;;;;;;9.60;8.20;;;;;;;;;;5048488;28;20529;-65
2021/11/23 14:13:25;;;;;;;14.57;9.23;;;;;;;;;;5047363;28;20422;-65
2021/11/23 14:15:52;;;;;;;13.27;10.17;;;;;;;;;;5049348;28;20426;-67
2021/11/23 14:18:19;;;;;;;14.47;9.30;;;;;;;;;;5049531;28;20458;-65
2021/11/23 14:20:48;;;;;;;10.93;8.77;;;;;;;;;;5051276;28;20474;-67
2021/11/23 14:23:14;;;;;;;10.60;9.23;;;;;;;;;;5059051;28;20421;-65
2021/11/23 14:25:40;;;;;;;9.87;8.73;;;;;;;;;;5052425;28;20880;-65
2021/11/23 14:28:07;;;;;;;13.33;10.47;;;;;;;;;;5047396;28;20430;-66
2021/11/23 14:30:34;;;;;;;12.20;9.60;;;;;;;;;;5048143;28;20559;-66
2021/11/23 14:33:02;;;;;;;10.87;9.37;;;;;;;;;;5051960;28;20414;-65
2021/11/23 14:35:29;;;;;;;8.33;7.50;;;;;;;;;;5053500;28;20417;-65
2021/11/23 14:37:55;;;;;;;10.40;9.27;;;;;;;;;;5051453;28;20492;-66